Notice: Undefined index: humidity_percent in C:\inetpub\wwwroot\Waitikiri\pwsWD\metar_load_funct.php on line 103 Weather34 Metar Aviation Weather Data Popup
14°C Temp
'.PHP_EOL;
9°C Dewpoint
% Humidity
Temperature
13 KM/H
8 MPH
7 KTS
70°
East North
East

Wind
Clear
Pressure 1006.92 (hPa)- 29.73 (in)
Visibility 6.2 (mi) - 10 (km)

Current Conditions
NZCH
Location Christchurch International 14(km)
Metar:
NZCH 220930Z AUTO 07007KT 9999 NCD 14/09 Q1007 NOSIG
Fri 22nd February 22:30 pm

Airport
  Metar Aviation API Data Provided by https://www.checkwx.com/